Time;durP1;ratioP1;P1;durP2;ratioP2;P2;SDS_P1;SDS_P2;PMS_P1;PMS_P2;Temp;Humidity;BMP_temperature;BMP_pressure;BME280_temperature;BME280_humidity;BME280_pressure;Samples;Min_cycle;Max_cycle;Signal;HPM_P1;HPM_P2
2021/10/12 00:02:04;;;;;;;14.70;4.38;;;12.60;99.60;;;10.39;100.00;101337.03;5049997;28;20539;-84
2021/10/12 00:04:31;;;;;;;13.43;4.43;;;12.60;99.70;;;10.36;100.00;101337.38;5050251;28;20150;-84
2021/10/12 00:07:00;;;;;;;16.10;4.70;;;12.60;99.70;;;10.39;100.00;101337.03;5034996;28;20500;-85
2021/10/12 00:09:28;;;;;;;12.13;4.00;;;12.60;99.70;;;10.35;100.00;101335.66;5069798;28;20044;-84
2021/10/12 00:11:57;;;;;;;11.07;4.32;;;12.70;99.80;;;10.30;100.00;101329.81;5030562;28;20049;-85
2021/10/12 00:14:24;;;;;;;13.82;4.63;;;12.60;99.80;;;10.33;100.00;101324.94;5029796;28;20073;-85
2021/10/12 00:16:52;;;;;;;12.15;4.20;;;12.60;99.80;;;10.29;100.00;101325.41;5029410;28;20115;-85
2021/10/12 00:19:19;;;;;;;13.32;4.47;;;12.60;99.90;;;10.27;100.00;101328.28;5029787;28;20049;-84
2021/10/12 00:21:46;;;;;;;13.55;4.15;;;12.60;99.90;;;10.28;100.00;101318.25;5034949;28;20037;-85
2021/10/12 00:24:14;;;;;;;15.90;4.15;;;12.60;99.90;;;10.32;100.00;101319.69;5049595;28;20454;-85
2021/10/12 00:26:41;;;;;;;14.38;4.47;;;12.60;99.90;;;10.32;100.00;101320.53;5041155;28;20076;-84
2021/10/12 00:29:10;;;;;;;18.02;4.88;;;12.60;99.90;;;10.33;100.00;101318.66;5049227;28;20053;-84
2021/10/12 00:31:37;;;;;;;16.45;4.97;;;12.60;99.90;;;10.27;100.00;101322.00;5049461;28;20559;-84
2021/10/12 00:34:04;;;;;;;17.67;4.88;;;12.60;99.90;;;10.24;100.00;101328.59;5048715;28;20763;-85
2021/10/12 00:36:32;;;;;;;16.58;4.63;;;12.60;99.90;;;10.21;100.00;101323.50;5049359;28;20448;-84
2021/10/12 00:38:59;;;;;;;17.58;5.40;;;12.60;99.90;;;10.22;100.00;101318.91;5080712;22;20043;-86
2021/10/12 00:41:26;;;;;;;16.83;4.95;;;12.50;99.90;;;10.17;100.00;101322.97;5089194;28;20054;-86
2021/10/12 00:43:54;;;;;;;12.38;4.53;;;12.60;99.90;;;10.22;100.00;101316.19;5089701;28;20144;-87
2021/10/12 00:46:22;;;;;;;14.32;5.30;;;12.60;99.90;;;10.17;100.00;101317.53;5089414;28;20142;-86
2021/10/12 00:48:50;;;;;;;14.85;5.55;;;12.50;99.90;;;10.09;100.00;101309.34;5080655;28;20041;-86
2021/10/12 00:51:17;;;;;;;23.70;5.20;;;12.50;99.90;;;10.13;100.00;101313.44;5069411;28;20078;-86
2021/10/12 01:02:27;;;;;;;21.23;5.53;;;12.50;99.90;;;10.17;100.00;101295.78;5064879;28;20106;-86
2021/10/12 01:05:19;;;;;;;16.98;5.82;;;12.50;99.90;;;10.14;100.00;101290.63;5064010;28;20060;-86
2021/10/12 01:08:04;;;;;;;16.65;5.55;;;12.50;99.90;;;10.13;100.00;101294.41;5084920;28;20048;-86
2021/10/12 01:10:32;;;;;;;20.00;6.13;;;12.50;99.90;;;10.16;100.00;101294.03;5088615;28;20142;-86
2021/10/12 01:13:01;;;;;;;15.95;5.60;;;12.50;99.90;;;10.15;100.00;101292.34;5088797;28;20144;-87
2021/10/12 01:15:28;;;;;;;16.35;5.65;;;12.50;99.90;;;10.17;100.00;101293.06;5088420;28;20117;-87
2021/10/12 01:17:56;;;;;;;17.80;6.88;;;12.50;99.90;;;10.14;100.00;101284.34;5088263;28;20058;-86
2021/10/12 01:20:25;;;;;;;20.08;5.95;;;12.50;99.90;;;10.21;100.00;101279.13;5067697;28;20071;-87
2021/10/12 01:22:55;;;;;;;27.20;6.60;;;12.50;99.90;;;10.23;100.00;101269.78;5068490;28;20087;-86
2021/10/12 01:25:22;;;;;;;24.60;6.95;;;12.50;99.90;;;10.28;100.00;101280.16;5068447;28;20048;-87
2021/10/12 01:27:50;;;;;;;17.38;6.72;;;12.50;99.90;;;10.26;100.00;101277.63;5067844;28;20055;-86
2021/10/12 01:30:18;;;;;;;17.15;6.80;;;12.50;99.90;;;10.26;100.00;101263.16;5068466;28;20058;-87
2021/10/12 01:32:47;;;;;;;20.15;6.72;;;12.50;99.90;;;10.29;100.00;101265.56;5068468;28;20135;-86
2021/10/12 01:35:16;;;;;;;15.48;6.85;;;12.50;99.90;;;10.31;100.00;101255.38;5068560;28;20054;-87
2021/10/12 01:37:44;;;;;;;15.38;7.47;;;12.50;99.90;;;10.29;100.00;101260.13;5067832;28;20068;-86
2021/10/12 01:40:15;;;;;;;15.68;7.18;;;12.50;99.90;;;10.30;100.00;101253.63;5067288;28;20058;-87
2021/10/12 01:42:43;;;;;;;18.17;9.10;;;12.60;99.90;;;10.30;100.00;101250.91;5087011;28;20044;-87
2021/10/12 01:45:14;;;;;;;21.65;9.30;;;12.60;99.90;;;10.30;100.00;101256.34;5074278;28;20051;-86
2021/10/12 01:47:42;;;;;;;;;;;12.60;99.90;;;10.28;100.00;101253.84;5068514;28;20060;-87
2021/10/12 01:50:14;;;;;;;26.00;9.77;;;12.60;99.90;;;10.23;100.00;101258.91;5067988;28;19968;-86
2021/10/12 01:52:41;;;;;;;22.63;9.80;;;12.50;99.90;;;10.22;100.00;101253.63;5068089;28;20036;-87
2021/10/12 01:55:09;;;;;;;28.42;11.68;;;12.60;99.90;;;10.23;100.00;101248.03;5067767;28;20123;-87
2021/10/12 01:57:37;;;;;;;23.88;12.73;;;12.60;99.90;;;10.22;100.00;101248.19;5067848;28;20072;-86
2021/10/12 02:00:07;;;;;;;24.40;12.25;;;12.60;99.90;;;10.29;100.00;101235.63;5066567;28;20082;-86
2021/10/12 02:02:38;;;;;;;22.65;13.32;;;12.60;99.90;;;10.25;100.00;101228.81;5067325;28;20135;-87
2021/10/12 02:05:06;;;;;;;29.17;13.43;;;12.50;99.90;;;10.21;100.00;101224.72;5068150;28;20041;-87
2021/10/12 02:07:34;;;;;;;24.40;13.30;;;12.50;99.90;;;10.27;100.00;101221.34;5080809;28;20071;-86
2021/10/12 02:10:07;;;;;;;25.15;13.98;;;12.50;99.90;;;10.31;100.00;101214.56;5087972;28;20135;-87
2021/10/12 02:12:34;;;;;;;33.22;15.25;;;12.60;99.90;;;10.27;100.00;101214.03;5071886;28;20090;-87
2021/10/12 02:15:04;;;;;;;25.58;14.35;;;12.60;99.90;;;10.21;100.00;101209.25;5071925;28;20045;-87
2021/10/12 02:17:31;;;;;;;26.35;14.00;;;12.50;99.90;;;10.22;100.00;101215.53;5071520;28;20040;-87
2021/10/12 02:19:58;;;;;;;28.13;15.23;;;12.50;99.90;;;10.19;100.00;101208.56;5068364;28;20153;-87
2021/10/12 02:22:26;;;;;;;23.25;14.27;;;12.50;99.90;;;10.15;100.00;101205.31;5070573;28;20041;-87
2021/10/12 02:24:53;;;;;;;27.15;14.93;;;12.50;99.90;;;10.18;100.00;101207.72;5071458;28;20049;-87
2021/10/12 02:27:21;;;;;;;28.67;15.07;;;12.50;99.90;;;10.17;100.00;101205.16;5071371;28;20047;-87
2021/10/12 02:29:49;;;;;;;36.40;15.10;;;12.50;99.90;;;10.22;100.00;101196.50;5071202;28;20044;-86
2021/10/12 02:32:19;;;;;;;27.85;14.25;;;12.50;99.90;;;10.28;100.00;101199.41;5071417;28;20045;-86
2021/10/12 02:34:46;;;;;;;27.02;13.98;;;12.50;99.90;;;10.34;100.00;101198.78;5071149;28;20045;-87
2021/10/12 02:37:16;;;;;;;34.13;15.65;;;12.50;99.90;;;10.29;100.00;101190.22;5069710;28;20051;-86
2021/10/12 02:39:45;;;;;;;30.25;15.98;;;12.50;99.90;;;10.32;100.00;101184.50;5070533;28;20040;-86
2021/10/12 02:42:16;;;;;;;27.90;15.63;;;12.50;99.90;;;10.23;100.00;101193.63;5071252;28;20067;-87
2021/10/12 02:44:43;;;;;;;24.10;14.90;;;12.50;99.90;;;10.25;100.00;101188.00;5070744;28;20504;-86
2021/10/12 02:47:10;;;;;;;30.58;16.17;;;12.50;99.90;;;10.23;100.00;101179.16;5071422;28;20041;-87
2021/10/12 02:49:41;;;;;;;28.42;16.23;;;12.50;99.90;;;10.23;100.00;101169.13;5070986;28;20048;-86
2021/10/12 02:52:08;;;;;;;33.03;17.02;;;12.50;99.90;;;10.24;100.00;101165.38;5070269;28;20440;-87
2021/10/12 02:54:36;;;;;;;31.90;16.23;;;12.50;99.90;;;10.25;100.00;101171.69;5070820;28;20048;-87
2021/10/12 02:57:03;;;;;;;32.05;17.05;;;12.50;99.90;;;10.20;100.00;101166.72;5070411;28;20609;-86
2021/10/12 02:59:31;;;;;;;30.27;16.85;;;12.50;99.90;;;10.23;100.00;101151.97;5070555;28;20127;-87
2021/10/12 03:01:58;;;;;;;35.53;17.00;;;12.50;99.90;;;10.23;100.00;101141.94;5070653;28;20125;-87
2021/10/12 03:04:25;;;;;;;30.75;15.90;;;12.50;99.90;;;10.18;100.00;101134.28;5070768;28;20040;-87
2021/10/12 03:06:54;;;;;;;29.77;15.40;;;12.50;99.90;;;10.22;100.00;101128.50;5078171;28;20440;-87
2021/10/12 03:09:21;;;;;;;30.08;15.45;;;12.50;99.90;;;10.18;100.00;101123.41;5088810;28;20074;-88
2021/10/12 03:11:48;;;;;;;25.60;13.80;;;12.50;99.90;;;10.11;100.00;101132.38;5090867;28;20063;-87
2021/10/12 03:14:16;;;;;;;27.88;14.50;;;12.50;99.90;;;10.14;100.00;101122.00;5090670;28;20047;-87
2021/10/12 03:16:43;;;;;;;36.85;14.13;;;12.50;99.90;;;10.07;100.00;101118.28;5090797;28;20067;-87
2021/10/12 03:19:12;;;;;;;34.50;14.27;;;12.40;99.90;;;10.11;100.00;101119.63;5090202;28;20055;-87
2021/10/12 03:21:45;;;;;;;25.48;12.68;;;12.40;99.90;;;10.12;100.00;101113.16;5076075;28;20121;-87
2021/10/12 03:24:13;;;;;;;20.23;11.82;;;12.40;99.90;;;10.09;100.00;101109.94;5070445;28;20409;-86
2021/10/12 03:26:41;;;;;;;23.95;11.57;;;12.40;99.90;;;10.05;100.00;101106.72;5070317;28;20048;-87
2021/10/12 03:29:08;;;;;;;23.70;11.65;;;12.40;99.90;;;10.05;100.00;101114.00;5070049;28;20040;-87
2021/10/12 03:31:35;;;;;;;24.65;10.65;;;12.50;99.90;;;10.03;100.00;101100.56;5070438;28;20041;-87
2021/10/12 03:34:03;;;;;;;20.10;9.60;;;12.40;99.90;;;10.03;100.00;101097.84;5069423;28;20044;-87
2021/10/12 03:36:30;;;;;;;19.13;8.50;;;12.40;99.90;;;9.95;100.00;101111.44;5070168;28;20048;-87
2021/10/12 03:38:57;;;;;;;19.55;7.50;;;12.40;99.90;;;9.91;100.00;101110.91;5069267;28;20076;-87
2021/10/12 03:41:26;;;;;;;17.27;7.93;;;12.40;99.90;;;9.93;100.00;101118.91;5069947;28;20048;-87
2021/10/12 03:43:53;;;;;;;24.80;7.97;;;12.30;99.90;;;9.89;100.00;101114.81;5070205;28;20114;-87
2021/10/12 03:46:20;;;;;;;20.25;7.07;;;12.30;99.90;;;9.91;100.00;101121.78;5070018;28;20045;-87
2021/10/12 03:48:48;;;;;;;21.85;8.25;;;12.30;99.90;;;9.89;100.00;101128.41;5069676;28;20514;-87
2021/10/12 03:51:18;;;;;;;20.13;8.75;;;12.30;99.90;;;9.90;100.00;101121.94;5069895;28;20504;-88
2021/10/12 03:53:45;;;;;;;20.08;8.45;;;12.30;99.90;;;9.92;100.00;101109.06;5069741;28;20497;-87
2021/10/12 03:56:13;;;;;;;17.00;8.00;;;12.30;99.90;;;9.91;100.00;101101.91;5069909;28;20044;-87
2021/10/12 03:58:41;;;;;;;32.88;9.48;;;12.30;99.90;;;9.93;100.00;101102.59;5069297;28;20076;-88
2021/10/12 04:01:08;;;;;;;22.85;8.40;;;12.30;99.90;;;9.91;100.00;101097.31;5070257;28;20489;-84
2021/10/12 04:03:36;;;;;;;15.77;7.57;;;12.30;99.90;;;9.93;100.00;101076.25;5068850;28;20053;-84
2021/10/12 04:06:03;;;;;;;16.85;8.52;;;12.30;99.90;;;9.92;100.00;101084.59;5070408;28;20492;-84
2021/10/12 04:08:30;;;;;;;18.25;9.43;;;12.30;99.90;;;9.94;100.00;101077.97;5089478;28;20136;-84
2021/10/12 04:10:57;;;;;;;21.35;9.43;;;12.30;99.90;;;9.91;100.00;101077.44;5077622;28;20127;-84
2021/10/12 04:13:24;;;;;;;20.88;10.60;;;12.20;99.90;;;9.90;100.00;101075.72;5069152;28;20118;-84
2021/10/12 04:15:53;;;;;;;30.67;12.65;;;12.30;99.90;;;9.96;100.00;101073.19;5069500;28;20071;-84
2021/10/12 04:18:20;;;;;;;29.83;13.32;;;12.30;99.90;;;9.96;100.00;101064.19;5069060;28;20143;-84
2021/10/12 04:20:48;;;;;;;28.60;14.30;;;12.20;99.90;;;9.96;100.00;101059.59;5069198;28;20078;-83
2021/10/12 04:23:15;;;;;;;31.63;15.25;;;12.20;99.90;;;9.96;100.00;101061.50;5069294;28;20052;-84
2021/10/12 04:25:42;;;;;;;39.90;16.63;;;12.30;99.90;;;9.93;100.00;101059.94;5069195;28;20448;-84
2021/10/12 04:28:12;;;;;;;33.88;17.02;;;12.20;99.90;;;9.88;100.00;101046.00;5066222;28;20040;-84
2021/10/12 04:30:41;;;;;;;39.97;18.33;;;12.20;99.90;;;9.88;100.00;101042.41;5068583;28;20054;-84
2021/10/12 04:33:10;;;;;;;39.75;18.23;;;12.20;99.90;;;9.83;100.00;101042.09;5058597;28;20048;-84
2021/10/12 04:35:38;;;;;;;34.88;17.35;;;12.20;99.90;;;9.81;100.00;101049.56;5049092;28;20041;-84
2021/10/12 04:38:06;;;;;;;35.13;19.52;;;12.20;99.90;;;9.77;100.00;101051.75;5048911;28;20072;-84
2021/10/12 04:40:33;;;;;;;39.58;20.02;;;12.20;99.90;;;9.73;100.00;101048.53;5049255;28;20076;-84
2021/10/12 04:43:06;;;;;;;49.13;21.77;;;12.20;99.90;;;9.79;100.00;101053.28;5047684;28;20478;-84
2021/10/12 04:45:33;;;;;;;46.63;22.70;;;12.10;99.90;;;9.85;100.00;101056.38;5049166;28;20072;-85
2021/10/12 04:48:05;;;;;;;;;;;12.10;99.90;;;9.93;100.00;101053.66;5064090;28;20535;-84
2021/10/12 04:50:33;;;;;;;48.05;23.25;;;12.10;99.90;;;9.93;100.00;101045.50;5055952;28;19928;-84
2021/10/12 04:53:01;;;;;;;46.55;24.85;;;12.10;99.90;;;9.87;100.00;101038.00;5068788;28;20123;-85
2021/10/12 04:55:29;;;;;;;52.90;26.25;;;12.10;99.90;;;9.83;100.00;101039.38;5068595;28;20147;-85
2021/10/12 04:57:57;;;;;;;51.13;24.73;;;12.10;99.90;;;9.79;100.00;101031.53;5068326;28;20054;-84
2021/10/12 05:00:24;;;;;;;45.47;24.35;;;12.10;99.90;;;9.81;100.00;101031.38;5068390;28;20464;-84
2021/10/12 05:02:52;;;;;;;52.45;24.70;;;12.10;99.90;;;9.81;100.00;101022.38;5068514;28;20041;-84
2021/10/12 05:05:19;;;;;;;46.45;22.80;;;12.10;99.90;;;9.81;100.00;101031.38;5066788;28;20053;-84
2021/10/12 05:07:48;;;;;;;50.72;24.30;;;12.10;99.90;;;9.75;100.00;101018.47;5083329;28;20074;-84
2021/10/12 05:10:16;;;;;;;48.25;24.60;;;12.10;99.90;;;9.66;100.00;101020.28;5088706;28;20055;-84
2021/10/12 05:12:44;;;;;;;49.60;23.67;;;12.10;99.90;;;9.67;100.00;101015.69;5088697;28;20032;-84
2021/10/12 05:15:19;;;;;;;46.55;23.58;;;12.10;99.90;;;9.68;100.00;101011.97;5088606;28;20127;-86
2021/10/12 05:17:47;;;;;;;45.85;23.00;;;12.10;99.90;;;9.69;100.00;101019.97;5087880;28;20063;-88
2021/10/12 05:20:16;;;;;;;41.58;22.42;;;12.10;99.90;;;9.67;100.00;101013.84;5083855;28;20051;-89
2021/10/12 05:22:44;;;;;;;47.22;22.33;;;12.10;99.90;;;9.66;100.00;101008.59;5068396;28;20048;-86
2021/10/12 05:25:13;;;;;;;41.78;21.77;;;12.00;99.90;;;9.66;100.00;101011.31;5068428;28;20123;-87
2021/10/12 05:27:41;;;;;;;40.50;21.65;;;12.00;99.90;;;9.69;100.00;101017.25;5067857;28;20102;-86
2021/10/12 05:30:12;;;;;;;41.45;20.45;;;12.10;99.90;;;9.72;100.00;101013.34;5068225;28;20118;-87
2021/10/12 05:32:41;;;;;;;34.17;18.77;;;12.10;99.90;;;9.76;100.00;101001.97;5068204;28;20137;-86
2021/10/12 05:35:10;;;;;;;45.42;20.48;;;12.10;99.90;;;9.74;100.00;101001.28;5065740;28;20040;-86
2021/10/12 05:37:38;;;;;;;40.17;19.80;;;12.10;99.90;;;9.72;100.00;100997.03;5067761;28;20131;-87
2021/10/12 05:40:07;;;;;;;41.50;20.02;;;12.10;99.90;;;9.77;100.00;100998.25;5067760;28;20051;-86
2021/10/12 05:42:36;;;;;;;41.42;20.00;;;12.10;99.90;;;9.74;100.00;100995.84;5067271;28;20070;-85
2021/10/12 05:45:03;;;;;;;39.03;18.90;;;12.10;99.90;;;9.75;100.00;100992.13;5065579;28;20079;-85
2021/10/12 05:47:30;;;;;;;39.55;20.98;;;12.10;99.90;;;9.78;100.00;100989.03;5067840;28;20071;-86
2021/10/12 05:49:58;;;;;;;37.72;18.92;;;12.10;99.90;;;9.75;100.00;100989.41;5068028;28;20040;-85
2021/10/12 05:52:25;;;;;;;34.60;17.30;;;12.00;99.90;;;9.75;100.00;100992.13;5067027;28;20131;-85
2021/10/12 05:55:04;;;;;;;31.95;16.60;;;12.00;99.90;;;9.73;100.00;100987.88;5067723;28;20048;-86
2021/10/12 05:57:38;;;;;;;34.20;16.45;;;12.00;99.90;;;9.70;100.00;100983.59;5065991;28;20495;-86
2021/10/12 06:00:08;;;;;;;34.10;16.10;;;12.00;99.90;;;9.67;100.00;100978.53;5077482;28;20078;-86
2021/10/12 06:02:41;;;;;;;29.00;14.93;;;12.00;99.90;;;9.68;100.00;100984.81;5087916;28;20416;-86
2021/10/12 06:05:09;;;;;;;29.35;12.75;;;12.00;99.90;;;9.69;100.00;100981.06;5084651;28;20072;-87
2021/10/12 06:07:36;;;;;;;34.85;14.52;;;12.00;99.90;;;9.68;100.00;100985.66;5072498;28;20048;-86
2021/10/12 06:10:05;;;;;;;32.22;14.40;;;12.00;99.90;;;9.66;100.00;100981.41;5064886;28;20385;-83
2021/10/12 06:12:33;;;;;;;25.92;14.25;;;12.00;99.90;;;9.70;100.00;100985.50;5087926;28;20564;-84
2021/10/12 06:15:00;;;;;;;29.30;15.32;;;12.00;99.90;;;9.69;100.00;100979.22;5085830;28;20142;-85
2021/10/12 06:17:28;;;;;;;26.17;13.63;;;12.00;99.90;;;9.66;100.00;100976.81;5087211;28;20052;-84
2021/10/12 06:19:56;;;;;;;27.30;13.98;;;12.00;99.90;;;9.64;100.00;100972.56;5083255;28;20048;-86
2021/10/12 06:22:23;;;;;;;38.85;14.30;;;12.00;99.90;;;9.68;100.00;100963.91;5073934;28;20068;-86
2021/10/12 06:24:50;;;;;;;26.50;12.52;;;12.00;99.90;;;9.67;100.00;100962.22;5065692;28;20043;-86
2021/10/12 06:27:20;;;;;;;21.63;12.13;;;12.00;99.90;;;9.70;100.00;100967.31;5066109;28;20041;-85
2021/10/12 06:29:47;;;;;;;29.52;12.55;;;12.00;99.90;;;9.75;100.00;100961.38;5071680;28;20095;-86
2021/10/12 06:32:14;;;;;;;28.33;12.43;;;12.00;99.90;;;9.77;100.00;100965.63;5087901;28;20859;-86
2021/10/12 06:34:43;;;;;;;33.30;12.45;;;12.00;99.90;;;9.83;100.00;100963.25;5086391;28;20070;-86
2021/10/12 06:37:10;;;;;;;29.55;12.48;;;12.00;99.90;;;9.81;100.00;100962.56;5063495;28;20197;-84
2021/10/12 06:39:38;;;;;;;31.55;12.88;;;12.00;99.90;;;9.84;100.00;100962.22;5056900;28;20074;-85
2021/10/12 06:42:05;;;;;;;33.28;13.60;;;12.10;99.90;;;9.80;100.00;100956.28;5088080;28;20561;-86
2021/10/12 06:44:32;;;;;;;37.33;13.98;;;12.10;99.90;;;9.86;100.00;100960.19;5073773;28;20690;-88
2021/10/12 06:47:00;;;;;;;33.45;13.70;;;12.10;99.90;;;9.87;100.00;100960.00;5066197;28;20098;-86
2021/10/12 06:49:27;;;;;;;24.65;12.57;;;12.10;99.90;;;9.97;100.00;100959.84;5066994;28;20127;-85
2021/10/12 06:51:55;;;;;;;23.65;11.73;;;12.10;99.90;;;9.96;100.00;100956.28;5085847;28;20151;-86
2021/10/12 06:54:23;;;;;;;23.17;10.43;;;12.10;99.90;;;10.01;100.00;100960.34;5096387;22;20490;-92
2021/10/12 06:56:50;;;;;;;33.28;12.00;;;12.10;99.90;;;9.99;100.00;100965.97;5030761;28;20052;-93
2021/10/12 06:59:18;;;;;;;34.85;11.48;;;12.10;99.90;;;9.96;100.00;100960.88;5033006;28;20061;-92
2021/10/12 07:01:45;;;;;;;30.00;9.80;;;12.10;99.90;;;9.98;100.00;100954.25;5052607;28;20045;-91
2021/10/12 07:04:13;;;;;;;16.73;9.20;;;12.10;99.90;;;9.96;100.00;100950.00;5051287;28;20053;-92
2021/10/12 07:06:40;;;;;;;23.63;9.27;;;12.10;99.90;;;10.00;100.00;100955.97;5040355;28;20044;-89
2021/10/12 07:09:08;;;;;;;38.35;10.60;;;12.10;99.90;;;10.05;100.00;100950.84;5046164;28;20041;-89
2021/10/12 07:11:36;;;;;;;22.85;9.60;;;12.20;99.90;;;10.09;100.00;100952.19;5049752;28;20044;-93
2021/10/12 07:14:03;;;;;;;22.88;9.57;;;12.20;99.90;;;10.07;100.00;100946.94;5038047;28;20073;-91
2021/10/12 07:16:31;;;;;;;37.10;10.82;;;12.20;99.90;;;10.07;100.00;100946.94;5031348;28;20049;-89
2021/10/12 07:18:58;;;;;;;26.10;11.73;;;12.20;99.90;;;10.06;100.00;100945.22;5027326;28;20069;-89
2021/10/12 07:21:26;;;;;;;19.58;10.52;;;12.20;99.90;;;10.12;100.00;100939.09;5050056;28;20042;-90
2021/10/12 07:23:53;;;;;;;19.65;11.23;;;12.20;99.90;;;10.16;100.00;100942.34;5049356;28;20072;-88
2021/10/12 07:26:22;;;;;;;23.58;12.25;;;12.20;99.90;;;10.12;100.00;100940.97;5050533;28;20076;-89
2021/10/12 07:28:49;;;;;;;24.98;12.95;;;12.30;99.90;;;10.18;100.00;100943.00;5026971;28;20539;-90
2021/10/12 07:31:17;;;;;;;28.70;15.27;;;12.30;99.90;;;10.16;100.00;100937.72;5027307;28;20041;-88
2021/10/12 07:33:44;;;;;;;37.75;15.93;;;12.30;99.90;;;10.13;100.00;100934.53;5029084;28;20049;-89
2021/10/12 07:36:12;;;;;;;54.55;18.52;;;12.30;99.90;;;10.13;100.00;100927.22;5031193;28;20117;-89
2021/10/12 07:38:39;;;;;;;33.28;16.23;;;12.30;99.90;;;10.15;100.00;100927.91;5028370;28;20055;-89
2021/10/12 07:41:08;;;;;;;26.05;16.00;;;12.30;99.90;;;10.24;100.00;100925.16;5013396;28;20096;-88
2021/10/12 07:43:36;;;;;;;41.88;17.83;;;12.30;99.90;;;10.31;100.00;100927.03;5018603;28;20053;-87
2021/10/12 07:46:04;;;;;;;53.60;20.17;;;12.30;99.90;;;10.34;100.00;100915.81;5025883;28;20050;-88
2021/10/12 07:48:31;;;;;;;42.47;19.13;;;12.30;99.90;;;10.34;100.00;100923.16;5013842;28;20125;-89
2021/10/12 07:50:59;;;;;;;23.75;15.18;;;12.40;99.90;;;10.38;100.00;100916.34;5040543;28;20041;-87
2021/10/12 07:53:28;;;;;;;30.65;16.52;;;12.40;99.90;;;10.37;100.00;100910.03;5010669;28;20129;-93
2021/10/12 07:55:58;;;;;;;29.02;16.77;;;12.40;99.90;;;10.40;100.00;100914.28;5009858;28;20054;-92
2021/10/12 07:58:25;;;;;;;29.85;17.70;;;12.40;99.90;;;10.43;100.00;100913.06;5014761;28;20045;-93
2021/10/12 08:00:54;;;;;;;28.30;17.33;;;12.40;99.90;;;10.47;100.00;100906.25;5041273;28;20049;-92
2021/10/12 08:03:22;;;;;;;32.63;19.60;;;12.40;99.90;;;10.57;100.00;100913.22;5040643;28;20037;-93
2021/10/12 08:05:49;;;;;;;31.40;20.00;;;12.50;99.90;;;10.61;100.00;100915.59;5009928;28;20124;-94
2021/10/12 08:08:16;;;;;;;43.38;21.60;;;12.50;99.90;;;10.66;100.00;100907.72;5048512;28;20055;-92
2021/10/12 08:10:44;;;;;;;36.72;20.33;;;12.50;99.90;;;10.62;100.00;100909.13;5044940;28;20049;-93
2021/10/12 08:13:15;;;;;;;30.20;19.13;;;12.50;99.90;;;10.67;100.00;100906.72;5036194;28;20076;-92
2021/10/12 08:15:46;;;;;;;38.08;21.20;;;12.50;99.90;;;10.66;100.00;100902.28;5032407;28;20084;-94
2021/10/12 08:18:15;;;;;;;35.95;20.58;;;12.60;99.90;;;10.60;100.00;100900.28;5031163;28;20144;-93
2021/10/12 08:20:42;;;;;;;53.28;21.77;;;12.50;99.90;;;10.55;100.00;100898.94;5042921;28;20095;-93
2021/10/12 08:23:12;;;;;;;37.35;20.02;;;12.60;99.90;;;10.61;100.00;100893.81;5050513;28;20047;-94
2021/10/12 08:25:39;;;;;;;36.67;20.60;;;12.60;99.90;;;10.57;100.00;100899.59;5036869;28;20160;-94
2021/10/12 08:28:07;;;;;;;39.95;21.48;;;12.60;99.90;;;10.52;100.00;100893.81;5030526;28;20048;-93
2021/10/12 08:30:34;;;;;;;44.65;22.08;;;12.60;99.90;;;10.52;100.00;100888.38;5040406;28;20559;-94
2021/10/12 08:33:03;;;;;;;38.40;21.05;;;12.60;99.90;;;10.59;100.00;100890.44;5049348;28;20548;-94
2021/10/12 08:35:32;;;;;;;47.65;21.33;;;12.60;99.90;;;10.62;100.00;100874.56;5049393;28;20098;-92
2021/10/12 08:38:00;;;;;;;34.28;19.60;;;12.60;99.90;;;10.67;100.00;100866.72;5048751;28;20071;-94
2021/10/12 08:40:30;;;;;;;33.28;20.73;;;12.70;99.90;;;10.69;100.00;100881.00;5045576;28;20037;-93
2021/10/12 08:42:59;;;;;;;35.13;20.98;;;12.70;99.90;;;10.76;100.00;100864.84;5049976;28;20053;-92
2021/10/12 08:45:26;;;;;;;31.50;19.85;;;12.70;99.90;;;10.82;100.00;100869.56;5049256;28;20154;-93
2021/10/12 08:47:54;;;;;;;34.03;20.25;;;12.80;99.90;;;10.86;100.00;100865.44;5049426;28;20413;-93
2021/10/12 08:50:24;;;;;;;39.33;20.65;;;12.80;99.90;;;10.94;100.00;100867.28;5045439;28;20068;-94
2021/10/12 08:52:53;;;;;;;29.30;19.30;;;12.80;99.90;;;10.92;100.00;100870.19;5029247;28;20053;-93
2021/10/12 08:55:20;;;;;;;31.10;19.77;;;12.90;99.90;;;10.93;100.00;100865.59;4971054;28;1130189;-93
2021/10/12 08:57:49;;;;;;;33.85;19.65;;;12.90;99.90;;;10.88;100.00;100863.41;5010636;28;20064;-94
2021/10/12 09:00:19;;;;;;;35.00;19.33;;;12.90;99.90;;;10.91;100.00;100852.16;5036989;28;20052;-94
2021/10/12 09:03:15;;;;;;;37.85;20.25;;;12.90;99.90;;;10.87;100.00;100855.41;5010455;28;20103;-95
2021/10/12 09:05:53;;;;;;;26.70;17.17;;;12.90;99.90;;;10.86;100.00;100859.16;5010700;28;20042;-94
2021/10/12 09:08:27;;;;;;;26.38;17.98;;;12.90;99.90;;;10.90;100.00;100865.94;5029451;28;20053;-94
2021/10/12 09:10:55;;;;;;;26.42;17.05;;;12.90;99.90;;;10.98;100.00;100863.16;5045027;28;20098;-94
2021/10/12 09:13:24;;;;;;;34.08;17.98;;;12.90;99.90;;;10.96;100.00;100866.06;5043007;28;20123;-89
2021/10/12 09:16:06;;;;;;;33.47;16.60;;;12.90;99.90;;;10.95;100.00;100858.94;5027913;28;20136;-93
2021/10/12 09:18:53;;;;;;;33.47;17.42;;;12.90;99.90;;;10.94;100.00;100856.38;5028174;28;20053;-90
2021/10/12 09:21:25;;;;;;;26.65;15.95;;;12.90;99.90;;;10.90;100.00;100857.78;5047346;28;20130;-91
2021/10/12 09:24:04;;;;;;;22.33;15.10;;;13.00;99.90;;;10.88;100.00;100857.94;5048062;28;20056;-93
2021/10/12 09:26:34;;;;;;;23.67;15.55;;;13.00;99.90;;;10.87;100.00;100853.56;5048515;28;20049;-92
2021/10/12 09:29:06;;;;;;;25.85;16.92;;;12.90;99.90;;;10.86;100.00;100849.13;5007198;28;20096;-90
2021/10/12 09:31:37;;;;;;;32.13;17.50;;;13.00;99.90;;;10.89;100.00;100854.22;5034636;28;20061;-91
2021/10/12 09:34:07;;;;;;;27.23;16.17;;;13.00;99.90;;;10.92;100.00;100848.41;5007345;28;20042;-91
2021/10/12 09:36:38;;;;;;;29.52;16.67;;;13.00;99.90;;;10.92;100.00;100845.66;5007802;28;20169;-91
2021/10/12 09:39:10;;;;;;;28.23;17.60;;;13.00;99.90;;;10.94;100.00;100843.63;5007647;28;20183;-92
2021/10/12 09:41:37;;;;;;;30.45;17.45;;;13.00;99.90;;;10.93;100.00;100844.66;5046297;28;20068;-91
2021/10/12 09:44:13;;;;;;;28.02;16.77;;;13.00;99.90;;;10.96;100.00;100844.28;5047438;28;20049;-91
2021/10/12 09:46:46;;;;;;;29.38;17.15;;;13.00;99.90;;;11.03;100.00;100838.97;5047443;28;20045;-90
2021/10/12 09:49:17;;;;;;;28.63;16.85;;;13.00;99.90;;;11.05;100.00;100846.97;5042264;28;20048;-90
2021/10/12 09:52:00;;;;;;;27.25;17.02;;;13.00;99.90;;;11.06;100.00;100837.75;5007890;28;20081;-92
2021/10/12 09:54:33;;;;;;;32.35;16.70;;;13.00;99.90;;;11.06;100.00;100832.31;5007661;28;20057;-90
2021/10/12 09:57:02;;;;;;;32.78;19.30;;;13.10;99.90;;;11.04;100.00;100829.81;5007523;28;20131;-91
2021/10/12 09:59:31;;;;;;;22.33;15.55;;;13.10;99.90;;;11.03;100.00;100827.25;5014026;28;20110;-90
2021/10/12 10:02:00;;;;;;;25.52;14.25;;;13.10;99.90;;;11.08;100.00;100820.22;5046979;28;20079;-90
2021/10/12 10:04:30;;;;;;;20.20;14.48;;;13.10;99.90;;;11.10;100.00;100820.03;5028204;28;20574;-91
2021/10/12 10:07:04;;;;;;;20.95;14.05;;;13.10;99.90;;;11.15;100.00;100820.34;5019144;28;20111;-91
2021/10/12 10:09:35;;;;;;;37.63;13.95;;;13.10;99.90;;;11.19;100.00;100826.28;5027823;28;20051;-91
2021/10/12 10:12:06;;;;;;;24.52;12.80;;;13.10;99.90;;;11.26;100.00;100817.19;5047061;28;20139;-90
2021/10/12 10:14:35;;;;;;;31.80;14.07;;;13.20;99.90;;;11.34;100.00;100808.13;5046991;28;20148;-91